Weather observations for the past three days for
Point Hope, Point Hope Airport
Metric (Imperial)
Date Time (akdt) Wind (kph) Vis. (km) Weather Sky Cond. Temperature (ºC) Relative Humidity Wind Chill (°C) Heat Index (°C) Pressure Precipitation (cm)
Air Dwpt 6 hour altimeter (cm) sea level (mb) 1 hr 3 hr 6 hr
Max. Min.
05 22:56 NW 11 16.09 Overcast BKN013 OVC046 -7.2 -10 81% -12 76.17 1015.4
05 21:56 NW 13 16.09 Overcast BKN015 OVC048 -7.2 -10 -5 -7.2 81% -12 76.15 1015.0
05 20:56 NW 15 14.48 Light Snow OVC013 -6.7 -9.4 81% -12 76.15 1015.0
05 19:56 NW 11 14.48 Light Snow OVC013 -6.7 -9.4 81% -11 76.15 1014.9
05 18:56 NW 15 14.48 Light Snow OVC011 -6.7 -9.4 81% -12 76.12 1014.6
05 17:56 NW 15 14.48 Light Snow OVC009 -6.1 -8.9 81% -11 76.1 1014.5
05 16:56 NW 11 14.48 Light Snow OVC009 -5 -7.8 81% -9 76.1 1014.4
05 15:56 W 11 16.09 Overcast OVC007 -6.1 -8.9 -5.6 -8.3 81% -10 76.1 1014.4
05 14:56 NW 11 16.09 Overcast OVC005 -6.7 -8.9 85% -11 76.1 1014.5
05 13:56 W 15 16.09 Overcast OVC003 -7.2 -8.9 88% -13 76.1 1014.3
05 12:56 W 15 16.09 Overcast OVC003 -7.8 -8.9 92% -13 76.1 0.0
05 11:56 W 11 16.09 Overcast OVC003 -7.8 -8.9 92% -12 76.1 0.0
05 10:56 W 7 16.09 Overcast OVC003 -7.8 -8.9 92% -11 76.1 0.0
05 09:56 W 11 16.09 Overcast OVC005 -7.8 -8.9 -7.8 -8.9 92% -12 76.1 0.0
05 08:56 NW 7 16.09 Overcast OVC005 -7.8 -8.9 92% -11 76.1 0.0
05 07:56 NW 9 8.05 Fog/Mist OVC003 -8.3 -9.4 92% -12 76.1 0.0
05 06:56 W 9 0.40 Freezing Fog OVC003 -8.9 -10 92% -13 76.1 0.0
05 05:56 NW 7 1.21 Fog/Mist OVC003 -8.9 -10 92% -12 76.1 0.0
05 04:56 NW 9 14.48 Overcast OVC003 -7.8 -8.9 92% -12 76.1 0.0
05 03:56 W 7 16.09 Overcast OVC005 -7.8 -8.9 92% -11 76.12 0.0
05 02:56 W 11 16.09 Overcast OVC005 -7.2 -8.3 92% -12 76.15 0.0
05 01:56 NW 9 16.09 Overcast OVC005 -6.7 -8.3 89% -11 76.17 0.0
05 00:56 NW 6 16.09 Overcast OVC005 0 0 0% 76.2 0.0
04 23:56 W 7 16.09 Overcast OVC005 0 0 0% 76.2 0.0
04 22:56 W 17 16.09 Overcast OVC007 0 0 0% 76.23 0.0
04 21:56 SW 15 16.09 Overcast OVC007 0 0 0% 76.23 0.0
04 20:56 SW 19 16.09 Overcast OVC009 0 0 0% 76.23 0.0
04 19:56 SW 15 16.09 A Few Clouds FEW009 0 0 0% 76.25 0.0
04 18:56 SW 22 16.09 Mostly Cloudy BKN009 0 0 0% 76.28 0.0
04 17:56 S 19 16.09 Overcast OVC009 0 0 0% 76.3 0.0
04 16:56 SW 17 16.09 Partly Cloudy SCT009 0 0 0% 76.33 0.0
04 15:56 S 20 14.48 Light Snow BKN007 OVC048 0 0 0% 76.35 0.0
04 14:56 SW 19 6.44 Light Snow FEW008 0 0 0% 76.38 0.0
04 13:56 SW 17 4.02 Light Snow SCT008 OVC026 0 0 0% 76.4 0.0
04 12:56 SW 17 4.02 Light Snow FEW008 SCT025 BKN033 0 0 0% 76.4 0.0
04 11:56 SW 17 2.41 Light Snow SCT020 OVC027 0 0 0% 76.43 0.0
04 10:56 SW 17 8.05 Light Snow FEW008 BKN027 OVC032 0 0 0% 76.43 0.0
04 09:56 SW 17 3.22 Light Snow SCT026 OVC030 0 0 0% 76.4 0.0
04 07:56 SW 17 4.83 Light Snow FEW027 BKN033 0 0 0% 76.38 0.0
04 06:56 SW 15 4.83 Light Snow FEW026 BKN034 OVC046 0 0 0% 76.38 0.0
04 05:56 S 11 16.09 Overcast FEW011 OVC090 0 0 0% 76.38 0.0
04 04:56 SW 17 16.09 Overcast OVC090 0 0 0% 76.35 0.0
04 03:56 W 13 16.09 Overcast SCT044 OVC085 0 0 0% 76.33 0.0
04 02:56 W 17 12.87 Light Snow SCT039 BKN047 0 0 0% 76.33 0.0
04 01:56 W 19 12.87 Light Snow FEW010 BKN025 BKN050 0 0 0% 76.3 0.0
04 00:56 W 15 14.48 Light Snow BKN010 OVC018 0 0 0% 76.28 0.0
03 23:56 SW 13 14.48 Light Snow FEW017 OVC049 0 0 0% 76.25 0.0
03 22:56 SW 13 14.48 Light Snow FEW015 BKN035 OVC047 0 0 0% 76.23 0.0
03 21:56 SW 17 9.66 Light Snow OVC012 0 0 0% 76.2 0.0
03 20:56 SW 15 6.44 Light Snow OVC025 0 0 0% 76.2 0.0
03 19:56 S 19 4.83 Light Snow OVC025 0 0 0% 76.2 0.0
03 18:56 S 17 14.48 Light Snow OVC032 0 0 0% 76.17 0.0
03 17:56 SW 17 14.48 Light Snow OVC034 0 0 0% 76.17 0.0
03 16:56 SW 19 14.48 Light Snow BKN014 OVC033 0 0 0% 76.17 0.0
03 15:56 S 19 14.48 Light Snow OVC014 0 0 0% 76.17 0.0
03 14:56 S 19 14.48 Light Snow OVC009 0 0 0% 76.17 0.0
03 12:56 SW 22 6.44 Light Snow Fog/Mist OVC012 -5 -6.7 88% -11 76.15 1015.0
03 11:56 SW 20 14.48 Light Snow FEW014 OVC023 -5.6 -7.8 85% -12 76.1 1014.4
03 10:56 SW 24 14.48 Light Snow SCT012 OVC039 -7.2 -8.9 88% -14 76.07 1014.1
03 09:56 SW 26 16.09 Mostly Cloudy BKN037 -7.8 -8.9 -7.2 -8.9 92% -16 76.02 1013.3
03 08:56 SW 26 14.48 Fair CLR -8.9 -10 92% -17 75.97 1012.7
03 07:56 SW 24 11.27 Light Snow OVC010 -8.3 -9.4 92% -16 75.95 1012.2
03 06:56 SW 28 11.27 Light Snow BKN010 -8.3 -9.4 92% -16 75.87 1011.4
03 05:56 SW 24 4.02 Light Snow Fog/Mist SCT010 BKN020 OVC030 -7.8 -8.9 92% -15 75.84 1011.0
03 04:56 SW 28 12.87 Light Snow OVC011 -7.8 -8.3 96% -16 75.79 1010.5
03 03:56 SW 22 9.66 Fog/Mist OVC006 -7.2 -8.3 -5 -7.2 92% -14 75.74 1009.8
03 02:56 SW 28 4.83 Fog/Mist OVC006 -6.7 -7.8 92% -14 75.72 1009.3
03 01:56 SW 28 3.22 Light Snow Fog/Mist OVC008 -6.1 -7.2 92% -14 75.67 1008.6
03 00:56 SW 28 1.61 Light Snow Fog/Mist OVC006 -6.1 -7.2 92% -14 75.62 1008.1
02 23:56 SW 24 2.41 Light Snow Fog/Mist OVC006 -5.6 -6.7 92% -12 75.57 1007.1
Date Time (akdt) Wind (kph) Vis. (km) Weather Sky Cond. Air Dwpt Max. Min. Relative Humidity Wind Chill (°C) Heat Index (°C) altimeter (cm) sea level (mb) 1 hr 3 hr 6 hr
6 hour
Temperature (ºC) Pressure Precipitation (cm)